Etusivu
METAR-TAF:

METAR-TAF

Lentoasemat :

Brighton, Englanti

Leveyspiiri: 50-50N, Pituuspiiri: 000-17W, korkeus merenpinnasta: 2 m

Tämänhetkinen sää

Tämä raportti tehtiin 31 minuuttia sitten, kello 17.50 UTC
Tuuli 15 kn lounaasta
Lämpötila 19°C
Kosteus 83%
Ilmanpaine 1017 hPa
Näkyvyys 10 km tai enemmän
Hajanaisia pilviä 1300 ft:n korkeudessa

METAR: EGKA 151750Z 23015KT 9999 SCT013 19/16 Q1017

Aika: 19:21 (18:21 UTC)

Sääennuste

Tämä raportti tehtiin 1 tunti ja 21 minuuttia sitten, kello 17.00 UTC
Ennuste voimassa 15. päivästä klo 18 UTC - 15. päivään klo 21 UTC
Tuuli 15 kn lounaasta
Näkyvyys 10 km tai enemmän
Hajanaisia pilviä 1400 ft:n korkeudessa

TAF: EGKA 151700Z 1518/1521 22015KT 9999 SCT014

Säähavainnot ja -ennusteet yli 4000 lentoasemalta (METAR- ja TAF-raportit).

Käytössä olevat sääasemat on merkitty karttaan keltaisilla ja punaisilla pisteillä.

Aseta hiiri pisteen päälle nähdäksesi sääaseman nimen.

Klikkaa sitten nähdäksesi säähavainnot ja -ennusteet.

Kartan vaihtaminen: klikkaa mustalla rastilla varustettuja vihreitä pisteitä, niin voit zoomata sisään; viivalla varustettua vihreää pistettä, niin voit zoomata ulos tai vihreitä nuolia, niin pääset viereisille kartoille.


METAR-TAF: